createdAt,value
2018-07-04T00:01:10.795Z,23.10
2018-07-04T00:03:49.594Z,23.00
2018-07-04T00:06:28.258Z,22.80
2018-07-04T00:09:06.877Z,22.80
2018-07-04T00:11:45.446Z,22.80
2018-07-04T00:14:23.941Z,22.80
2018-07-04T00:17:02.478Z,22.70
2018-07-04T00:19:41.945Z,22.70
2018-07-04T00:22:20.706Z,22.70
2018-07-04T00:24:59.411Z,22.60
2018-07-04T00:27:37.976Z,22.50
2018-07-04T00:30:16.516Z,22.50
2018-07-04T00:32:55.036Z,22.40
2018-07-04T00:35:33.649Z,22.30
2018-07-04T00:38:12.252Z,22.30
2018-07-04T00:40:50.838Z,22.30
2018-07-04T00:43:29.410Z,22.20
2018-07-04T00:46:07.959Z,22.30
2018-07-04T00:48:46.445Z,22.30
2018-07-04T00:51:25.190Z,22.40
2018-07-04T00:54:03.712Z,22.50
2018-07-04T00:56:42.344Z,22.50
2018-07-04T00:59:20.892Z,22.40
2018-07-04T01:01:59.441Z,22.30
2018-07-04T01:04:38.186Z,22.10
2018-07-04T01:07:16.791Z,22.00
2018-07-04T01:09:55.724Z,21.90
2018-07-04T01:12:34.405Z,21.80
2018-07-04T01:15:12.954Z,21.80
2018-07-04T01:17:51.539Z,21.70
2018-07-04T01:20:35.916Z,21.60
2018-07-04T01:23:14.617Z,21.60
2018-07-04T01:25:53.297Z,21.60
2018-07-04T01:28:37.670Z,21.50
2018-07-04T01:31:16.445Z,21.50
2018-07-04T01:33:55.063Z,21.30
2018-07-04T01:36:33.868Z,21.20
2018-07-04T01:39:12.524Z,21.30
2018-07-04T01:41:51.383Z,21.30
2018-07-04T01:44:30.053Z,21.30
2018-07-04T01:47:08.647Z,21.20
2018-07-04T01:49:47.223Z,21.20
2018-07-04T01:52:25.871Z,21.10
2018-07-04T01:55:04.397Z,21.20
2018-07-04T01:57:43.024Z,21.20
2018-07-04T02:00:21.614Z,21.10
2018-07-04T02:03:00.201Z,21.10
2018-07-04T02:05:38.725Z,21.10
2018-07-04T02:08:17.370Z,21.10
2018-07-04T02:10:56.050Z,21.20
2018-07-04T02:13:34.795Z,21.30
2018-07-04T02:16:13.620Z,21.30
2018-07-04T02:18:52.163Z,21.30
2018-07-04T02:21:30.653Z,21.40
2018-07-04T02:24:09.228Z,21.40
2018-07-04T02:26:47.716Z,21.50
2018-07-04T02:29:26.633Z,21.40
2018-07-04T02:32:05.267Z,21.20
2018-07-04T02:34:43.870Z,21.00
2018-07-04T02:37:22.437Z,20.90
2018-07-04T02:40:01.037Z,21.00
2018-07-04T02:42:39.611Z,20.90
2018-07-04T02:45:18.178Z,20.90
2018-07-04T02:47:56.718Z,20.80
2018-07-04T02:50:35.271Z,20.80
2018-07-04T02:53:13.894Z,20.90
2018-07-04T02:55:52.781Z,21.00
2018-07-04T02:58:31.907Z,20.80
2018-07-04T03:01:10.520Z,20.70
2018-07-04T03:03:49.620Z,20.60
2018-07-04T03:06:28.380Z,20.60
2018-07-04T03:09:07.756Z,20.60
2018-07-04T03:11:46.513Z,20.50
2018-07-04T03:14:25.096Z,20.50
2018-07-04T03:17:03.605Z,20.40
2018-07-04T03:19:42.249Z,20.60
2018-07-04T03:22:20.861Z,20.80
2018-07-04T03:24:59.647Z,20.80
2018-07-04T03:27:38.354Z,20.90
2018-07-04T03:30:16.948Z,20.70
2018-07-04T03:32:55.787Z,20.60
2018-07-04T03:35:34.299Z,20.70
2018-07-04T03:38:12.946Z,20.80
2018-07-04T03:40:51.452Z,20.90
2018-07-04T03:43:30.236Z,21.00
2018-07-04T03:46:10.029Z,21.00
2018-07-04T03:48:48.665Z,21.00
2018-07-04T03:51:27.548Z,21.00
2018-07-04T03:54:06.444Z,21.00
2018-07-04T03:56:45.295Z,20.90
2018-07-04T03:59:23.984Z,20.70
2018-07-04T04:02:02.710Z,20.60
2018-07-04T04:04:41.273Z,20.60
2018-07-04T04:07:19.927Z,20.60
2018-07-04T04:09:58.536Z,20.70
2018-07-04T04:12:37.190Z,20.50
2018-07-04T04:15:15.940Z,20.50
2018-07-04T04:17:54.520Z,20.50
2018-07-04T04:20:33.041Z,20.40
2018-07-04T04:23:11.935Z,20.40
2018-07-04T04:25:50.545Z,20.40
2018-07-04T04:28:29.348Z,20.50
2018-07-04T04:31:08.030Z,20.50
2018-07-04T04:33:46.631Z,20.60
2018-07-04T04:36:25.218Z,20.90
2018-07-04T04:39:04.045Z,21.00
2018-07-04T04:41:42.847Z,21.00
2018-07-04T04:44:21.868Z,21.00
2018-07-04T04:47:01.337Z,21.00
2018-07-04T04:49:39.891Z,21.10
2018-07-04T04:52:18.544Z,21.10
2018-07-04T04:54:57.832Z,21.10
2018-07-04T04:57:36.444Z,21.10
2018-07-04T05:00:15.286Z,21.00
2018-07-04T05:02:53.986Z,20.80
2018-07-04T05:05:32.800Z,20.60
2018-07-04T05:08:11.420Z,20.50
2018-07-04T05:10:50.298Z,20.50
2018-07-04T05:13:28.950Z,20.60
2018-07-04T05:16:08.066Z,20.60
2018-07-04T05:35:31.749Z,21.10
2018-07-04T05:38:13.514Z,21.30
2018-07-04T05:40:52.531Z,21.40
2018-07-04T05:43:31.245Z,21.50
2018-07-04T05:46:09.841Z,21.60
2018-07-04T05:48:48.400Z,21.60
2018-07-04T05:51:26.985Z,21.80
2018-07-04T05:54:05.621Z,21.80
2018-07-04T05:56:44.418Z,21.80
2018-07-04T05:59:23.183Z,21.90
2018-07-04T06:02:01.853Z,21.90
2018-07-04T06:04:40.383Z,21.90
2018-07-04T06:07:20.416Z,22.00
2018-07-04T06:09:59.028Z,22.20
2018-07-04T06:12:41.887Z,22.30
2018-07-04T06:15:20.569Z,22.40
2018-07-04T06:17:59.248Z,22.50
2018-07-04T06:20:37.891Z,22.40
2018-07-04T06:23:17.115Z,22.50
2018-07-04T06:25:55.851Z,22.70
2018-07-04T06:28:34.496Z,22.70
2018-07-04T06:31:13.598Z,22.80
2018-07-04T06:33:52.412Z,22.80
2018-07-04T06:36:32.016Z,22.90
2018-07-04T06:38:58.907Z,23.00
2018-07-04T06:41:25.271Z,22.90
2018-07-04T06:43:51.592Z,22.80
2018-07-04T06:46:17.913Z,23.00
2018-07-04T06:48:44.213Z,23.10
2018-07-04T06:51:10.659Z,23.20
2018-07-04T06:53:36.921Z,23.40
2018-07-04T06:56:03.308Z,23.60
2018-07-04T06:58:29.546Z,23.60
2018-07-04T07:00:56.064Z,23.60
2018-07-04T07:03:34.989Z,23.70
2018-07-04T07:06:13.614Z,23.80
2018-07-04T07:08:52.336Z,23.80
2018-07-04T07:11:31.184Z,23.90
2018-07-04T07:14:09.867Z,24.00
2018-07-04T07:16:48.413Z,24.10
2018-07-04T07:19:27.128Z,24.10
2018-07-04T07:22:06.084Z,24.20
2018-07-04T07:24:44.637Z,24.20
2018-07-04T07:27:23.268Z,24.30
2018-07-04T07:30:02.128Z,24.40
2018-07-04T07:32:40.647Z,24.40
2018-07-04T07:35:19.453Z,24.40
2018-07-04T07:37:59.174Z,24.40
2018-07-04T07:40:37.629Z,24.20
2018-07-04T07:43:16.215Z,24.40
2018-07-04T07:45:54.863Z,24.50
2018-07-04T07:48:34.279Z,24.40
2018-07-04T07:51:12.795Z,24.50
2018-07-04T07:53:53.334Z,24.60
2018-07-04T07:56:32.118Z,24.60
2018-07-04T07:59:10.726Z,24.80
2018-07-04T08:01:49.276Z,25.00
2018-07-04T08:04:27.876Z,25.00
2018-07-04T08:07:06.639Z,25.00
2018-07-04T08:09:45.174Z,25.10
2018-07-04T08:12:23.786Z,25.20
2018-07-04T08:15:02.293Z,25.30
2018-07-04T08:17:40.783Z,25.40
2018-07-04T08:20:19.403Z,25.40
2018-07-04T08:22:57.900Z,25.60
2018-07-04T08:25:36.660Z,25.80
2018-07-04T08:28:15.308Z,25.80
2018-07-04T08:30:53.934Z,26.00
2018-07-04T08:33:32.750Z,26.10
2018-07-04T08:36:11.395Z,26.20
2018-07-04T08:38:50.208Z,26.40
2018-07-04T08:41:28.802Z,26.50
2018-07-04T08:44:08.166Z,26.40
2018-07-04T08:46:46.718Z,26.50
2018-07-04T08:49:25.361Z,26.70
2018-07-04T08:52:03.909Z,26.60
2018-07-04T08:54:42.556Z,26.70
2018-07-04T08:57:21.797Z,26.80
2018-07-04T09:00:00.330Z,27.00
2018-07-04T09:02:38.824Z,27.00
2018-07-04T09:05:17.566Z,27.00
2018-07-04T09:07:56.221Z,26.80
2018-07-04T09:10:34.808Z,26.80
2018-07-04T09:13:13.658Z,26.90
2018-07-04T09:15:52.232Z,27.00
2018-07-04T09:18:30.720Z,27.00
2018-07-04T09:21:09.343Z,27.10
2018-07-04T09:23:48.133Z,27.10
2018-07-04T09:26:26.803Z,27.10
2018-07-04T09:29:05.577Z,27.20
2018-07-04T09:31:44.392Z,27.20
2018-07-04T09:34:23.800Z,27.30
2018-07-04T09:39:49.204Z,27.50
2018-07-04T09:42:33.860Z,27.50
2018-07-04T09:45:12.944Z,27.60
2018-07-04T09:47:51.469Z,27.60
2018-07-04T09:50:30.049Z,27.60
2018-07-04T09:53:10.275Z,27.60
2018-07-04T09:55:49.064Z,27.60
2018-07-04T09:58:27.709Z,27.80
2018-07-04T10:01:12.034Z,27.90
2018-07-04T10:03:50.545Z,27.80
2018-07-04T10:06:29.492Z,27.80
2018-07-04T10:09:08.437Z,27.80
2018-07-04T10:11:47.367Z,27.90
2018-07-04T10:14:25.972Z,27.90
2018-07-04T10:17:04.539Z,27.90
2018-07-04T10:19:43.279Z,28.00
2018-07-04T10:22:21.764Z,28.10
2018-07-04T10:25:00.654Z,28.30
2018-07-04T10:27:39.281Z,28.30
2018-07-04T10:30:17.911Z,28.20
2018-07-04T10:32:56.584Z,28.20
2018-07-04T10:35:35.899Z,28.30
2018-07-04T10:38:14.502Z,28.20
2018-07-04T10:40:53.236Z,28.40
2018-07-04T10:43:31.932Z,28.70
2018-07-04T10:46:10.477Z,28.90
2018-07-04T10:48:49.709Z,28.90
2018-07-04T10:51:28.432Z,28.90
2018-07-04T10:54:07.303Z,28.60
2018-07-04T10:56:46.392Z,28.40
2018-07-04T10:59:25.543Z,28.30
2018-07-04T11:02:04.245Z,28.50
2018-07-04T11:04:42.772Z,28.60
2018-07-04T11:07:21.460Z,28.50
2018-07-04T11:10:00.217Z,28.60
2018-07-04T11:12:38.747Z,28.60
2018-07-04T11:15:17.347Z,28.80
2018-07-04T11:17:56.503Z,28.60
2018-07-04T11:20:35.173Z,28.30
2018-07-04T11:23:13.739Z,28.20
2018-07-04T11:25:52.288Z,28.30
2018-07-04T11:28:31.648Z,28.30
2018-07-04T11:31:10.938Z,28.40
2018-07-04T11:33:49.644Z,28.40
2018-07-04T11:36:28.240Z,28.50
2018-07-04T11:39:06.796Z,28.80
2018-07-04T11:41:45.340Z,29.10
2018-07-04T11:44:23.847Z,29.20
2018-07-04T11:46:50.149Z,29.30
2018-07-04T11:49:16.380Z,29.30
2018-07-04T11:51:42.589Z,29.50
2018-07-04T11:54:09.580Z,29.70
2018-07-04T11:56:36.108Z,29.70
2018-07-04T11:59:02.448Z,29.90
2018-07-04T12:01:28.686Z,30.10
2018-07-04T12:04:07.366Z,30.50
2018-07-04T12:06:45.967Z,30.70
2018-07-04T12:09:12.308Z,30.90
2018-07-04T12:11:38.530Z,30.80
2018-07-04T12:14:04.896Z,30.60
2018-07-04T12:16:31.150Z,30.80
2018-07-04T12:18:57.420Z,31.10
2018-07-04T12:21:23.730Z,31.30
2018-07-04T12:23:49.932Z,31.40
2018-07-04T12:26:16.598Z,31.50
2018-07-04T12:28:42.934Z,31.60
2018-07-04T12:31:09.282Z,31.20
2018-07-04T12:33:35.571Z,31.10
2018-07-04T12:36:01.813Z,31.10
2018-07-04T12:38:28.074Z,30.80
2018-07-04T12:40:54.272Z,30.80
2018-07-04T12:43:20.515Z,31.20
2018-07-04T12:45:46.776Z,31.60
2018-07-04T12:48:12.989Z,31.80
2018-07-04T12:50:39.282Z,32.20
2018-07-04T12:53:05.501Z,32.40
2018-07-04T12:55:44.212Z,32.60
2018-07-04T12:58:22.748Z,32.50
2018-07-04T13:01:01.282Z,32.30
2018-07-04T13:03:39.840Z,32.40
2018-07-04T13:06:18.452Z,32.90
2018-07-04T13:08:57.225Z,33.50
2018-07-04T13:11:36.304Z,33.60
2018-07-04T13:14:14.952Z,33.40
2018-07-04T13:16:54.759Z,32.50
2018-07-04T13:19:33.806Z,32.00
2018-07-04T13:22:13.439Z,31.60
2018-07-04T13:24:52.067Z,31.90
2018-07-04T13:27:30.977Z,32.10
2018-07-04T13:30:09.627Z,31.80
2018-07-04T13:32:48.122Z,31.60
2018-07-04T13:35:26.611Z,31.40
2018-07-04T13:38:05.804Z,31.20
2018-07-04T13:40:44.485Z,31.20
2018-07-04T13:43:23.087Z,30.90
2018-07-04T13:46:01.827Z,30.70
2018-07-04T13:48:41.354Z,30.60
2018-07-04T13:51:21.237Z,30.40
2018-07-04T13:54:00.622Z,30.40
2018-07-04T13:56:39.278Z,30.10
2018-07-04T13:59:18.258Z,30.00
2018-07-04T14:01:58.244Z,29.20
2018-07-04T14:04:36.949Z,29.00
2018-07-04T14:07:15.448Z,28.90
2018-07-04T14:26:45.946Z,28.00
2018-07-04T14:29:24.504Z,28.10
2018-07-04T14:32:03.487Z,27.90
2018-07-04T14:34:42.066Z,27.90
2018-07-04T14:37:20.830Z,28.00
2018-07-04T14:39:59.458Z,28.10
2018-07-04T14:42:38.098Z,28.20
2018-07-04T14:45:16.947Z,28.30
2018-07-04T14:47:55.875Z,28.50
2018-07-04T14:50:34.688Z,28.50
2018-07-04T14:53:13.646Z,28.50
2018-07-04T14:55:52.269Z,28.30
2018-07-04T14:58:31.739Z,28.30
2018-07-04T15:01:10.880Z,28.20
2018-07-04T15:03:49.489Z,27.90
2018-07-04T15:06:28.030Z,27.70
2018-07-04T15:09:06.724Z,27.50
2018-07-04T15:11:45.420Z,27.20
2018-07-04T15:14:23.966Z,27.20
2018-07-04T15:17:02.510Z,27.00
2018-07-04T15:19:41.325Z,27.00
2018-07-04T15:22:20.037Z,27.10
2018-07-04T15:24:58.676Z,27.10
2018-07-04T15:27:38.528Z,27.10
2018-07-04T15:30:18.813Z,27.10
2018-07-04T15:32:57.324Z,26.90
2018-07-04T15:35:35.959Z,27.00
2018-07-04T15:38:14.705Z,27.20
2018-07-04T15:40:53.682Z,27.30
2018-07-04T15:43:34.603Z,27.50
2018-07-04T15:46:13.330Z,27.50
2018-07-04T15:48:51.890Z,27.50
2018-07-04T15:51:30.406Z,27.50
2018-07-04T16:10:52.980Z,27.60
2018-07-04T16:13:31.597Z,27.40
2018-07-04T16:16:10.177Z,27.30
2018-07-04T16:18:48.741Z,27.40
2018-07-04T16:21:28.014Z,27.20
2018-07-04T16:24:06.700Z,27.20
2018-07-04T16:26:45.364Z,27.40
2018-07-04T16:29:24.040Z,27.40
2018-07-04T16:32:02.589Z,27.20
2018-07-04T16:34:42.079Z,27.20
2018-07-04T16:37:21.123Z,27.20
2018-07-04T16:39:59.676Z,27.00
2018-07-04T16:42:38.285Z,26.80
2018-07-04T16:45:17.129Z,26.70
2018-07-04T16:47:56.042Z,26.60
2018-07-04T16:50:35.217Z,26.70
2018-07-04T16:53:13.738Z,26.60
2018-07-04T16:55:52.655Z,26.50
2018-07-04T16:58:31.706Z,26.40
2018-07-04T17:01:10.565Z,26.40
2018-07-04T17:03:49.409Z,26.20
2018-07-04T17:06:28.168Z,26.20
2018-07-04T17:09:07.812Z,26.10
2018-07-04T17:11:46.554Z,26.10
2018-07-04T17:14:25.218Z,26.10
2018-07-04T17:17:03.910Z,26.10
2018-07-04T17:19:42.851Z,26.30
2018-07-04T17:22:21.573Z,26.40
2018-07-04T17:25:02.470Z,26.50
2018-07-04T17:27:40.953Z,26.60
2018-07-04T17:30:19.733Z,26.70
2018-07-04T17:32:59.006Z,26.80
2018-07-04T17:35:37.550Z,26.80
2018-07-04T17:38:16.437Z,26.80
2018-07-04T17:40:55.029Z,26.80
2018-07-04T17:43:33.589Z,26.70
2018-07-04T17:46:12.186Z,26.70
2018-07-04T17:48:51.285Z,26.70
2018-07-04T17:51:29.962Z,26.80
2018-07-04T17:54:09.851Z,26.70
2018-07-04T17:56:48.592Z,26.70
2018-07-04T17:59:27.170Z,26.70
2018-07-04T18:02:05.809Z,26.70
2018-07-04T18:04:44.305Z,26.70
2018-07-04T18:07:23.920Z,26.70
2018-07-04T18:26:47.212Z,25.40
2018-07-04T18:29:25.757Z,25.10
2018-07-04T18:32:05.156Z,25.00
2018-07-04T18:34:43.743Z,25.00
2018-07-04T18:37:23.215Z,25.00
2018-07-04T18:40:01.787Z,25.10
2018-07-04T18:42:40.282Z,25.20
2018-07-04T18:45:18.912Z,25.20
2018-07-04T18:47:57.804Z,25.20
2018-07-04T18:50:36.603Z,25.20
2018-07-04T18:53:15.384Z,25.30
2018-07-04T18:55:55.550Z,25.20
2018-07-04T18:58:34.294Z,25.20
2018-07-04T19:01:13.071Z,25.20
2018-07-04T19:03:52.799Z,25.20
2018-07-04T19:06:32.509Z,25.20
2018-07-04T19:09:11.185Z,25.20
2018-07-04T19:11:50.120Z,25.20
2018-07-04T19:14:28.965Z,25.20
2018-07-04T19:17:07.497Z,25.20
2018-07-04T19:19:46.558Z,25.20
2018-07-04T19:22:25.184Z,25.20
2018-07-04T19:25:04.114Z,25.20
2018-07-04T19:27:42.757Z,25.20
2018-07-04T19:30:24.037Z,25.20
2018-07-04T19:33:02.952Z,25.10
2018-07-04T19:35:43.006Z,25.00
2018-07-04T19:38:21.615Z,24.90
2018-07-04T19:41:00.398Z,24.80
2018-07-04T19:43:38.992Z,24.80
2018-07-04T19:46:19.713Z,24.80
2018-07-04T19:48:58.661Z,24.80
2018-07-04T19:51:37.255Z,24.80
2018-07-04T19:54:16.281Z,24.80
2018-07-04T19:56:57.105Z,24.80
2018-07-04T19:59:36.537Z,24.70
2018-07-04T20:02:15.155Z,24.70
2018-07-04T20:04:53.714Z,24.60
2018-07-04T20:07:32.386Z,24.50
2018-07-04T20:10:10.884Z,24.40
2018-07-04T20:12:49.389Z,24.30
2018-07-04T20:15:28.071Z,24.20
2018-07-04T20:18:06.632Z,24.20
2018-07-04T20:20:45.246Z,24.20
2018-07-04T20:23:25.277Z,24.20
2018-07-04T20:26:03.854Z,24.20
2018-07-04T20:28:42.444Z,24.20
2018-07-04T20:31:25.522Z,24.10
2018-07-04T20:34:04.026Z,23.90
2018-07-04T20:36:42.623Z,23.70
2018-07-04T20:39:21.728Z,23.70
2018-07-04T20:42:00.634Z,23.60
2018-07-04T20:44:40.062Z,23.70
2018-07-04T20:47:19.200Z,23.70
2018-07-04T20:49:57.787Z,23.80
2018-07-04T20:52:39.608Z,23.90
2018-07-04T20:55:18.435Z,24.00
2018-07-04T20:57:57.207Z,24.10
2018-07-04T21:00:36.842Z,24.10
2018-07-04T21:03:15.361Z,23.90
2018-07-04T21:05:54.948Z,23.60
2018-07-04T21:08:33.719Z,23.30
2018-07-04T21:11:15.468Z,23.10
2018-07-04T21:13:55.295Z,23.00
2018-07-04T21:16:33.897Z,23.00
2018-07-04T21:19:12.534Z,22.80
2018-07-04T21:21:51.103Z,22.90
2018-07-04T21:24:30.196Z,22.90
2018-07-04T21:27:09.253Z,22.80
2018-07-04T21:29:47.934Z,22.90
2018-07-04T21:32:26.402Z,22.90
2018-07-04T21:35:05.116Z,22.80
2018-07-04T21:37:43.633Z,22.80
2018-07-04T21:40:22.226Z,22.70
2018-07-04T21:43:00.908Z,22.50
2018-07-04T21:45:40.106Z,22.40
2018-07-04T21:48:18.714Z,22.40
2018-07-04T21:50:57.248Z,22.40
2018-07-04T21:53:35.832Z,22.30
2018-07-04T21:56:14.374Z,22.20
2018-07-04T21:58:53.013Z,22.10
2018-07-04T22:01:31.698Z,22.10
2018-07-04T22:04:10.515Z,22.20
2018-07-04T22:06:48.871Z,22.20
2018-07-04T22:09:27.407Z,22.20
2018-07-04T22:12:05.894Z,22.20
2018-07-04T22:14:44.728Z,22.40
2018-07-04T22:17:23.384Z,22.40
2018-07-04T22:20:02.011Z,22.40
2018-07-04T22:22:40.570Z,22.40
2018-07-04T22:25:19.066Z,22.30
2018-07-04T22:27:57.526Z,22.20
2018-07-04T22:30:36.025Z,22.10
2018-07-04T22:33:14.542Z,22.20
2018-07-04T22:35:53.204Z,22.20
2018-07-04T22:38:32.076Z,22.20
2018-07-04T22:41:10.564Z,22.20
2018-07-04T22:43:49.105Z,22.20
2018-07-04T22:46:27.655Z,22.30
2018-07-04T22:49:06.237Z,22.20
2018-07-04T22:51:44.793Z,22.20
2018-07-04T22:54:23.445Z,22.20
2018-07-04T22:57:02.022Z,22.20
2018-07-04T22:59:40.609Z,22.20
2018-07-04T23:04:52.019Z,21.90
2018-07-04T23:07:30.449Z,21.90
2018-07-04T23:20:30.993Z,21.80
2018-07-04T23:23:09.863Z,21.80
2018-07-04T23:25:48.587Z,21.80
2018-07-04T23:28:27.204Z,21.90
2018-07-04T23:31:06.000Z,21.90
2018-07-04T23:33:44.847Z,21.90
2018-07-04T23:36:23.591Z,21.80
2018-07-04T23:39:02.922Z,21.80
2018-07-04T23:41:41.541Z,21.80
2018-07-04T23:44:20.102Z,21.80
2018-07-04T23:46:58.723Z,21.60
2018-07-04T23:49:37.336Z,21.40
2018-07-04T23:52:16.077Z,21.20
2018-07-04T23:54:54.539Z,21.00
2018-07-04T23:57:33.030Z,21.00
